Time;durP1;ratioP1;P1;durP2;ratioP2;P2;SDS_P1;SDS_P2;PMS_P1;PMS_P2;Temp;Humidity;BMP_temperature;BMP_pressure;BME280_temperature;BME280_humidity;BME280_pressure;Samples;Min_cycle;Max_cycle;Signal;HPM_P1;HPM_P2
2022/10/21 00:00:53;;;;;;;;;;;;;;;23.71;46.71;94076.16;5051361;28;7731;-60
2022/10/21 00:03:26;;;;;;;;;;;;;;;23.71;46.08;94078.13;5061036;28;7138;-60
2022/10/21 00:05:52;;;;;;;;;;;;;;;23.72;46.18;94071.41;5061927;28;9110;-60
2022/10/21 00:08:21;;;;;;;;;;;;;;;23.70;46.50;94060.94;5062545;28;7243;-61
2022/10/21 00:11:01;;;;;;;;;;;;;;;23.71;46.31;94053.44;5083390;28;7269;-61
2022/10/21 00:13:35;;;;;;;;;;;;;;;23.71;45.92;94051.44;5054421;28;7213;-60
2022/10/21 00:16:25;;;;;;;;;;;;;;;23.70;46.32;94051.94;5080468;28;7286;-60
2022/10/21 00:18:53;;;;;;;;;;;;;;;23.69;46.42;94053.19;4989476;28;7243;-60
2022/10/21 00:21:21;;;;;;;;;;;;;;;23.70;46.32;94040.97;4964005;28;7328;-61
2022/10/21 00:23:49;;;;;;;;;;;;;;;23.70;46.35;94027.25;4982884;28;7224;-60
2022/10/21 00:26:23;;;;;;;;;;;;;;;23.67;46.68;94026.25;4972577;28;7193;-60
2022/10/21 00:28:56;;;;;;;;;;;;;;;23.69;46.70;94034.72;4981549;28;9027;-61
2022/10/21 00:31:57;;;;;;;;;;;;;;;23.68;46.18;94038.72;4975276;28;8455;-60
2022/10/21 00:34:37;;;;;;;;;;;;;;;23.66;46.29;94043.22;4974743;28;7241;-61
2022/10/21 00:37:04;;;;;;;;;;;;;;;23.66;46.30;94041.22;4990225;28;7209;-60
2022/10/21 00:39:33;;;;;;;;;;;;;;;23.67;46.59;94059.19;4980179;28;7909;-60
2022/10/21 00:42:19;;;;;;;;;;;;;;;23.68;46.62;94082.66;4990205;28;7049;-60
2022/10/21 00:45:14;;;;;;;;;;;;;;;23.68;46.35;94085.41;4964582;28;7274;-60
2022/10/21 00:47:50;;;;;;;;;;;;;;;23.68;46.91;94084.66;4988173;28;8835;-60
2022/10/21 00:50:38;;;;;;;;;;;;;;;23.70;46.24;94076.66;4990442;28;8072;-60
2022/10/21 00:53:09;;;;;;;;;;;;;;;23.67;46.85;94061.19;4958124;28;9091;-60
2022/10/21 00:56:04;;;;;;;;;;;;;;;23.69;46.71;94084.16;5010240;28;7612;-60
2022/10/21 00:58:39;;;;;;;;;;;;;;;23.67;47.00;94074.91;5067133;28;7225;-61
2022/10/21 01:01:08;;;;;;;;;;;;;;;23.68;46.61;94070.94;5070169;28;7275;-60
2022/10/21 01:03:44;;;;;;;;;;;;;;;23.67;46.68;94067.44;5070762;28;8942;-60
2022/10/21 01:06:26;;;;;;;;;;;;;;;23.66;46.34;94070.69;5069204;28;7017;-60
2022/10/21 01:09:04;;;;;;;;;;;;;;;23.64;46.31;94064.97;5052818;28;9224;-60
2022/10/21 01:11:43;;;;;;;;;;;;;;;23.64;46.37;94068.44;5060932;28;7191;-60
2022/10/21 01:14:42;;;;;;;;;;;;;;;23.65;46.45;94066.44;5052939;28;9025;-60
2022/10/21 01:17:16;;;;;;;;;;;;;;;23.66;46.56;94067.94;5069981;28;7240;-61
2022/10/21 01:19:54;;;;;;;;;;;;;;;23.64;46.57;94073.19;5054281;28;7320;-61
2022/10/21 01:22:58;;;;;;;;;;;;;;;23.65;46.37;94071.94;5070490;28;7210;-60
2022/10/21 01:26:09;;;;;;;;;;;;;;;23.65;46.69;94082.91;5069839;28;7356;-60
2022/10/21 01:28:58;;;;;;;;;;;;;;;23.65;46.18;94083.66;5066996;28;9039;-60
2022/10/21 01:31:37;;;;;;;;;;;;;;;23.65;46.80;94082.91;5076635;28;7246;-61
2022/10/21 01:34:48;;;;;;;;;;;;;;;23.65;46.19;94077.41;5057621;28;7654;-60
2022/10/21 01:37:42;;;;;;;;;;;;;;;23.63;46.00;94066.94;5068188;28;7257;-61
2022/10/21 01:40:18;;;;;;;;;;;;;;;23.62;46.75;94064.72;5066857;28;7183;-60
2022/10/21 01:43:16;;;;;;;;;;;;;;;23.63;47.01;94061.47;5071299;28;7424;-60
2022/10/21 01:46:22;;;;;;;;;;;;;;;23.61;46.32;94065.97;5071275;28;8614;-60
2022/10/21 01:49:11;;;;;;;;;;;;;;;23.61;46.63;94071.44;5007471;28;9273;-60
2022/10/21 01:52:09;;;;;;;;;;;;;;;23.61;46.77;94085.19;5015847;28;7052;-60
2022/10/21 01:54:42;;;;;;;;;;;;;;;23.61;46.17;94083.19;4989360;28;9081;-60
2022/10/21 01:57:25;;;;;;;;;;;;;;;23.60;46.30;94076.19;4992636;28;7248;-60
2022/10/21 01:59:56;;;;;;;;;;;;;;;23.60;46.71;94070.69;4967638;28;7202;-61
2022/10/21 02:02:46;;;;;;;;;;;;;;;23.59;46.64;94058.25;4985787;28;7373;-60
2022/10/21 02:05:36;;;;;;;;;;;;;;;23.59;46.54;94022.53;4977113;28;9059;-60
2022/10/21 02:08:03;;;;;;;;;;;;;;;23.61;46.48;94013.78;4992384;28;7367;-61
2022/10/21 02:10:52;;;;;;;;;;;;;;;23.61;45.54;94002.81;4992205;28;7060;-61
2022/10/21 02:13:29;;;;;;;;;;;;;;;23.58;46.39;93996.34;4984070;28;7567;-60
2022/10/21 02:16:02;;;;;;;;;;;;;;;23.57;46.30;93996.84;4984831;28;7267;-60
2022/10/21 02:18:28;;;;;;;;;;;;;;;23.56;46.34;93992.59;4975733;28;7316;-60
2022/10/21 02:21:07;;;;;;;;;;;;;;;23.58;46.85;94001.81;4976048;28;9695;-60
2022/10/21 02:23:49;;;;;;;;;;;;;;;23.59;46.70;94008.06;5008005;28;7493;-60
2022/10/21 02:26:26;;;;;;;;;;;;;;;23.59;46.59;93997.84;5025061;28;9711;-59
2022/10/21 02:29:01;;;;;;;;;;;;;;;23.60;46.33;93984.84;5003041;28;7264;-60
2022/10/21 02:32:02;;;;;;;;;;;;;;;23.58;46.85;93973.63;5046422;28;7237;-59
2022/10/21 02:34:50;;;;;;;;;;;;;;;23.56;46.63;93981.63;5076247;28;7288;-60
2022/10/21 02:37:24;;;;;;;;;;;;;;;23.57;46.49;93978.38;5053883;28;8267;-60
2022/10/21 02:39:59;;;;;;;;;;;;;;;23.55;46.59;93966.41;5080834;28;7271;-60
2022/10/21 02:42:35;;;;;;;;;;;;;;;23.55;46.57;93963.66;5087798;28;7004;-60
2022/10/21 02:45:02;;;;;;;;;;;;;;;23.55;46.87;93958.94;5082189;28;7327;-60
2022/10/21 02:47:30;;;;;;;;;;;;;;;23.53;46.61;93944.22;5071192;28;9024;-59
2022/10/21 02:49:58;;;;;;;;;;;;;;;23.57;46.26;93961.16;5063550;28;6987;-60
2022/10/21 02:52:24;;;;;;;;;;;;;;;23.54;46.34;93962.91;5057173;28;7228;-60
2022/10/21 02:54:50;;;;;;;;;;;;;;;23.53;46.60;93939.44;5076252;28;7141;-60
2022/10/21 02:57:18;;;;;;;;;;;;;;;23.53;46.61;93933.25;5058190;28;6980;-59
2022/10/21 02:59:46;;;;;;;;;;;;;;;23.54;46.18;93934.72;5058206;28;7254;-60
2022/10/21 03:02:15;;;;;;;;;;;;;;;23.57;46.76;93933.72;5032293;28;7253;-60
2022/10/21 03:04:45;;;;;;;;;;;;;;;23.53;46.48;93941.47;5075814;28;7202;-60
2022/10/21 03:07:14;;;;;;;;;;;;;;;23.54;46.08;93927.22;5038565;28;9559;-60
2022/10/21 03:09:42;;;;;;;;;;;;;;;23.53;46.87;93919.50;5062298;28;9069;-60
2022/10/21 03:12:08;;;;;;;;;;;;;;;23.55;46.63;93933.47;5067746;28;7698;-60
2022/10/21 03:14:35;;;;;;;;;;;;;;;23.55;46.71;93931.47;5052244;28;6970;-60
2022/10/21 03:17:01;;;;;;;;;;;;;;;23.55;46.64;93925.25;5051881;28;7451;-60
2022/10/21 03:19:29;;;;;;;;;;;;;;;23.54;46.79;93919.00;5050637;28;6960;-60
2022/10/21 03:21:55;;;;;;;;;;;;;;;23.55;46.82;93933.47;5067550;28;7086;-59
2022/10/21 03:24:23;;;;;;;;;;;;;;;23.54;46.62;93931.97;5065247;28;7148;-60
2022/10/21 03:26:52;;;;;;;;;;;;;;;23.54;46.64;93929.22;5064333;28;7301;-60
2022/10/21 03:29:27;;;;;;;;;;;;;;;23.54;46.39;93929.97;5066637;28;7214;-60
2022/10/21 03:32:04;;;;;;;;;;;;;;;23.54;45.92;93927.22;5071745;28;7100;-60
2022/10/21 03:34:33;;;;;;;;;;;;;;;23.55;46.36;93933.47;5071664;28;7015;-60
2022/10/21 03:36:59;;;;;;;;;;;;;;;23.55;46.55;93930.72;5062305;28;7199;-60
2022/10/21 03:39:44;;;;;;;;;;;;;;;23.55;46.65;93933.47;5061876;28;6856;-60
2022/10/21 03:42:10;;;;;;;;;;;;;;;23.54;46.31;93931.97;5062080;28;7263;-60
2022/10/21 03:45:11;;;;;;;;;;;;;;;23.52;46.39;93924.25;5072494;28;7007;-60
2022/10/21 03:47:47;;;;;;;;;;;;;;;23.51;46.47;93930.97;5014651;28;7234;-60
2022/10/21 03:50:21;;;;;;;;;;;;;;;23.51;46.42;93935.75;5042060;28;7264;-59
2022/10/21 03:52:59;;;;;;;;;;;;;;;23.50;46.50;93921.28;5008880;28;7307;-60
2022/10/21 03:55:26;;;;;;;;;;;;;;;23.51;46.81;93908.31;5019282;28;7423;-60
2022/10/21 03:57:55;;;;;;;;;;;;;;;23.50;46.50;93924.03;5007118;28;7340;-60
2022/10/21 04:00:22;;;;;;;;;;;;;;;23.51;46.57;93930.25;5017300;28;7058;-61
2022/10/21 04:02:57;;;;;;;;;;;;;;;23.51;46.50;93930.25;5010371;28;8474;-61
2022/10/21 04:05:37;;;;;;;;;;;;;;;23.52;46.74;93915.28;5000957;28;7347;-60
2022/10/21 04:08:13;;;;;;;;;;;;;;;23.51;46.56;93905.56;5010211;28;7389;-61
2022/10/21 04:10:52;;;;;;;;;;;;;;;23.52;46.69;93893.31;5037465;28;6993;-60
2022/10/21 04:13:38;;;;;;;;;;;;;;;23.51;46.26;93898.03;5004639;28;6986;-60
2022/10/21 04:16:39;;;;;;;;;;;;;;;23.52;46.79;93891.31;5004161;28;7257;-60
2022/10/21 04:19:05;;;;;;;;;;;;;;;23.50;46.44;93880.09;5028603;28;7076;-60
2022/10/21 04:21:35;;;;;;;;;;;;;;;23.50;46.52;93896.56;5031211;28;6982;-60
2022/10/21 04:24:11;;;;;;;;;;;;;;;23.52;46.38;93887.81;5049476;28;9292;-60
2022/10/21 04:26:54;;;;;;;;;;;;;;;23.50;46.35;93880.09;5053358;28;7246;-60
2022/10/21 04:29:29;;;;;;;;;;;;;;;23.50;46.55;93895.81;5061977;28;7112;-60
2022/10/21 04:32:05;;;;;;;;;;;;;;;23.51;46.70;93872.63;5052560;28;7227;-61
2022/10/21 04:34:42;;;;;;;;;;;;;;;23.50;46.55;93851.91;5065504;28;7353;-60
2022/10/21 04:37:17;;;;;;;;;;;;;;;23.50;46.51;93851.91;5065775;28;7265;-60
2022/10/21 04:39:56;;;;;;;;;;;;;;;23.51;47.07;93856.16;5053195;28;7178;-60
2022/10/21 04:42:30;;;;;;;;;;;;;;;23.51;46.57;93847.91;5061086;28;7380;-60
2022/10/21 04:45:30;;;;;;;;;;;;;;;23.50;46.55;93838.94;5052644;28;7908;-60
2022/10/21 04:47:57;;;;;;;;;;;;;;;23.50;46.58;93840.91;5062217;28;7471;-60
2022/10/21 04:50:42;;;;;;;;;;;;;;;23.49;46.58;93833.97;5059215;28;7397;-61
2022/10/21 04:53:11;;;;;;;;;;;;;;;23.50;46.71;93835.44;5044516;28;7238;-60
2022/10/21 04:56:06;;;;;;;;;;;;;;;23.48;46.44;93818.72;5071673;28;6989;-60
2022/10/21 04:58:32;;;;;;;;;;;;;;;23.49;46.25;93823.69;5010450;28;7422;-60
2022/10/21 05:01:02;;;;;;;;;;;;;;;23.49;46.39;93812.00;5035838;28;7165;-61
2022/10/21 05:03:29;;;;;;;;;;;;;;;23.49;46.27;93820.97;5007238;28;7055;-60
2022/10/21 05:05:56;;;;;;;;;;;;;;;23.49;46.58;93823.69;5022226;28;7008;-60
2022/10/21 05:08:31;;;;;;;;;;;;;;;23.48;46.26;93803.00;5007244;28;9404;-60
2022/10/21 05:11:01;;;;;;;;;;;;;;;23.49;46.59;93809.25;5006849;28;7238;-60
2022/10/21 05:13:59;;;;;;;;;;;;;;;23.49;46.66;93807.25;5007684;28;8025;-61
2022/10/21 05:16:39;;;;;;;;;;;;;;;23.47;46.25;93815.25;4997394;28;7134;-60
2022/10/21 05:19:05;;;;;;;;;;;;;;;23.48;46.66;93818.72;5023753;28;7235;-59
2022/10/21 05:21:33;;;;;;;;;;;;;;;23.48;47.08;93808.50;5047439;28;8706;-60
2022/10/21 05:24:08;;;;;;;;;;;;;;;23.45;46.57;93812.25;5033559;28;6962;-60
2022/10/21 05:26:43;;;;;;;;;;;;;;;23.43;46.55;93811.28;5023279;28;7240;-60
2022/10/21 05:29:23;;;;;;;;;;;;;;;23.46;46.60;93810.28;4999398;28;7232;-60
2022/10/21 05:32:03;;;;;;;;;;;;;;;23.49;46.34;93806.50;5005654;28;7616;-60
2022/10/21 05:34:39;;;;;;;;;;;;;;;23.46;46.60;93804.78;5013992;28;9423;-60
2022/10/21 05:37:17;;;;;;;;;;;;;;;23.47;46.41;93812.50;5052077;28;7229;-60
2022/10/21 05:39:50;;;;;;;;;;;;;;;23.45;46.54;93811.50;5033808;28;7339;-60
2022/10/21 05:42:18;;;;;;;;;;;;;;;23.46;46.53;93804.78;5051827;28;7625;-60
2022/10/21 05:44:47;;;;;;;;;;;;;;;23.45;46.52;93800.53;5035212;28;7433;-61
2022/10/21 05:47:15;;;;;;;;;;;;;;;23.46;46.37;93791.06;5051961;28;7196;-60
2022/10/21 05:49:51;;;;;;;;;;;;;;;23.43;46.69;93787.31;5027296;28;7354;-60
2022/10/21 05:52:47;;;;;;;;;;;;;;;23.44;46.31;93785.34;5032916;28;7945;-60
2022/10/21 05:55:12;;;;;;;;;;;;;;;23.42;46.64;93779.63;5032228;28;7019;-60
2022/10/21 05:57:41;;;;;;;;;;;;;;;23.44;46.36;93788.06;5048387;28;9676;-60
2022/10/21 06:00:10;;;;;;;;;;;;;;;23.44;46.92;93782.59;5004993;28;8948;-60
2022/10/21 06:02:36;;;;;;;;;;;;;;;23.42;46.73;93785.84;5008151;28;7243;-60
2022/10/21 06:05:06;;;;;;;;;;;;;;;23.43;46.37;93792.06;5018132;28;6999;-60
2022/10/21 06:07:33;;;;;;;;;;;;;;;23.42;46.28;93793.34;5045777;28;7002;-60
2022/10/21 06:10:01;;;;;;;;;;;;;;;23.43;46.61;93809.28;5044846;28;7308;-60
2022/10/21 06:12:27;;;;;;;;;;;;;;;23.43;46.69;93816.75;5037046;28;7285;-61
2022/10/21 06:15:20;;;;;;;;;;;;;;;23.44;46.47;93840.22;5003553;28;6967;-60
2022/10/21 06:17:45;;;;;;;;;;;;;;;23.44;46.68;93870.41;5022423;28;7252;-60
2022/10/21 06:20:13;;;;;;;;;;;;;;;23.44;46.64;93898.59;5030984;28;8733;-60
2022/10/21 06:22:39;;;;;;;;;;;;;;;23.44;46.20;93919.81;5004250;28;7216;-61
2022/10/21 06:25:07;;;;;;;;;;;;;;;23.44;46.76;93941.78;5011691;28;7093;-60
2022/10/21 06:27:35;;;;;;;;;;;;;;;23.42;46.61;93950.53;5036480;28;9347;-60
2022/10/21 06:30:03;;;;;;;;;;;;;;;23.42;46.36;93956.00;5013227;28;7362;-60
2022/10/21 06:32:30;;;;;;;;;;;;;;;23.41;46.78;93975.72;5033461;28;7254;-61
2022/10/21 06:34:58;;;;;;;;;;;;;;;23.42;46.75;93985.44;5065980;28;7265;-60
2022/10/21 06:37:26;;;;;;;;;;;;;;;23.40;46.49;93994.19;5051724;28;7214;-60
2022/10/21 06:39:54;;;;;;;;;;;;;;;23.43;46.77;94023.34;5055936;28;8177;-60
2022/10/21 06:42:23;;;;;;;;;;;;;;;23.43;46.18;94033.56;5066012;28;7443;-60
2022/10/21 06:45:21;;;;;;;;;;;;;;;23.42;46.83;94046.56;5082936;28;7408;-61
2022/10/21 06:47:47;;;;;;;;;;;;;;;23.41;46.20;94047.81;4978170;28;7398;-60
2022/10/21 06:50:25;;;;;;;;;;;;;;;23.42;46.69;94054.81;4987890;28;8292;-60
2022/10/21 06:52:59;;;;;;;;;;;;;;;23.43;46.43;94061.78;5000197;28;7399;-60
2022/10/21 06:56:02;;;;;;;;;;;;;;;23.42;46.14;94045.81;4957780;28;7267;-60
2022/10/21 06:58:28;;;;;;;;;;;;;;;23.42;46.64;94040.34;4959948;28;7217;-60
2022/10/21 07:01:19;;;;;;;;;;;;;;;23.42;46.63;94021.13;4927919;29;7572;-60
2022/10/21 07:04:04;;;;;;;;;;;;;;;23.43;46.79;94017.09;4934802;28;9092;-60
2022/10/21 07:06:31;;;;;;;;;;;;;;;23.43;46.64;94017.09;4927429;28;7349;-60
2022/10/21 07:09:09;;;;;;;;;;;;;;;23.40;46.81;93977.72;4965504;28;7013;-60
2022/10/21 07:11:38;;;;;;;;;;;;;;;23.42;46.82;93886.66;4918892;28;7146;-60
2022/10/21 07:14:08;;;;;;;;;;;;;;;23.42;46.21;93911.34;4923983;29;7276;-59
2022/10/21 07:16:50;;;;;;;;;;;;;;;23.39;46.40;93939.78;4919131;29;6964;-60
2022/10/21 07:19:16;;;;;;;;;;;;;;;23.41;46.73;93923.56;4948806;28;7744;-60
2022/10/21 07:21:45;;;;;;;;;;;;;;;23.38;46.75;93930.09;4942894;28;8815;-60
2022/10/21 07:24:44;;;;;;;;;;;;;;;23.38;46.16;93947.28;4989068;28;6928;-60
2022/10/21 07:27:14;;;;;;;;;;;;;;;23.39;46.26;93965.25;4979336;28;7271;-60
2022/10/21 07:29:40;;;;;;;;;;;;;;;23.39;46.80;93964.50;5024733;28;7184;-61
2022/10/21 07:32:05;;;;;;;;;;;;;;;23.38;47.02;93930.81;4994116;28;7335;-61
2022/10/21 07:34:44;;;;;;;;;;;;;;;23.37;46.70;93937.56;5001070;28;7402;-60
2022/10/21 07:37:10;;;;;;;;;;;;;;;23.37;46.69;93953.28;5040924;28;7218;-60
2022/10/21 07:39:38;;;;;;;;;;;;;;;23.38;46.76;93963.75;5013358;28;7481;-60
2022/10/21 07:42:05;;;;;;;;;;;;;;;23.41;46.76;93959.25;5027357;28;7276;-60
2022/10/21 07:44:31;;;;;;;;;;;;;;;23.40;45.98;93961.25;5005917;28;9782;-60
2022/10/21 07:47:00;;;;;;;;;;;;;;;23.38;46.81;93955.50;5029388;28;7220;-61
2022/10/21 07:49:56;;;;;;;;;;;;;;;23.39;46.85;93959.75;5001607;28;8981;-60
2022/10/21 07:52:23;;;;;;;;;;;;;;;23.38;46.64;93961.00;4933830;28;7264;-61
2022/10/21 07:55:01;;;;;;;;;;;;;;;23.37;46.79;93959.50;4952584;28;7380;-60
2022/10/21 07:57:27;;;;;;;;;;;;;;;23.38;46.39;93958.25;4951780;28;7235;-60
2022/10/21 07:59:53;;;;;;;;;;;;;;;23.39;46.76;93965.25;4951732;28;6971;-60
2022/10/21 08:02:19;;;;;;;;;;;;;;;23.38;46.59;93971.97;4952517;28;7392;-60
2022/10/21 08:04:50;;;;;;;;;;;;;;;23.37;46.68;93975.97;4989447;28;8587;-60
2022/10/21 08:07:17;;;;;;;;;;;;;;;23.37;46.68;93986.22;4991342;28;7439;-61
2022/10/21 08:10:15;;;;;;;;;;;;;;;23.37;46.61;93989.69;4991223;28;7175;-61
2022/10/21 08:12:55;;;;;;;;;;;;;;;23.37;46.93;94003.44;4954274;28;7209;-60
2022/10/21 08:15:31;;;;;;;;;;;;;;;23.37;46.75;94014.41;4960183;28;7384;-60
2022/10/21 08:17:57;;;;;;;;;;;;;;;23.37;46.86;94030.13;4927667;29;9119;-60
2022/10/21 08:20:23;;;;;;;;;;;;;;;23.37;47.20;94041.09;4935813;28;7312;-60
2022/10/21 08:22:49;;;;;;;;;;;;;;;23.36;46.81;94040.34;4951562;28;7722;-60
2022/10/21 08:25:28;;;;;;;;;;;;;;;23.38;47.06;94067.28;4968234;28;7862;-60
2022/10/21 08:27:54;;;;;;;;;;;;;;;23.38;46.83;94078.28;4941569;28;7268;-61
2022/10/21 08:30:22;;;;;;;;;;;;;;;23.38;46.78;94087.22;4989385;28;7324;-60
2022/10/21 08:32:52;;;;;;;;;;;;;;;23.40;47.04;94111.44;5020240;28;8332;-60
2022/10/21 08:35:47;;;;;;;;;;;;;;;23.39;46.68;94120.91;4994299;28;7553;-60
2022/10/21 08:38:41;;;;;;;;;;;;;;;23.40;46.85;94138.91;4965538;28;7247;-60
2022/10/21 08:41:55;;;;;;;;;;;;;;;23.40;46.60;94149.88;4972798;28;7155;-60
2022/10/21 08:44:54;;;;;;;;;;;;;;;23.41;46.91;94152.09;4968048;28;7397;-60
2022/10/21 08:47:32;;;;;;;;;;;;;;;23.41;46.56;94157.59;4971264;28;7089;-60
2022/10/21 08:50:19;;;;;;;;;;;;;;;23.40;47.20;94164.34;4968140;28;7214;-60
2022/10/21 08:53:23;;;;;;;;;;;;;;;23.40;46.64;94158.09;4988262;28;7966;-61
2022/10/21 08:56:00;;;;;;;;;;;;;;;23.39;46.71;94165.59;5010380;28;7492;-61
2022/10/21 08:58:28;;;;;;;;;;;;;;;23.39;47.16;94165.59;4984929;28;7366;-60
2022/10/21 09:01:31;;;;;;;;;;;;;;;23.40;46.95;94178.06;4978428;28;7045;-60
2022/10/21 09:04:27;;;;;;;;;;;;;;;23.39;46.47;94164.84;4994585;28;8501;-61
2022/10/21 09:07:11;;;;;;;;;;;;;;;23.40;46.82;94164.34;4936769;28;7500;-60
2022/10/21 09:10:08;;;;;;;;;;;;;;;23.40;46.54;94158.88;4955697;28;7233;-60
2022/10/21 09:12:58;;;;;;;;;;;;;;;23.40;46.63;94155.38;4952084;28;8804;-61
2022/10/21 09:16:07;;;;;;;;;;;;;;;23.40;46.55;94149.88;5009213;28;7209;-60
2022/10/21 09:18:52;;;;;;;;;;;;;;;23.38;46.52;94146.88;5027752;28;7261;-60
2022/10/21 09:21:18;;;;;;;;;;;;;;;23.38;46.57;94147.59;5029897;28;7045;-60
2022/10/21 09:24:03;;;;;;;;;;;;;;;23.38;46.78;94153.09;5012021;28;7044;-60
2022/10/21 09:26:41;;;;;;;;;;;;;;;23.38;46.84;94139.38;5007396;28;7132;-60
2022/10/21 09:29:14;;;;;;;;;;;;;;;23.39;46.62;94138.13;5022778;28;7119;-60
2022/10/21 09:32:39;;;;;;;;;;;;;;;23.38;46.89;94146.88;5032919;28;6992;-60
2022/10/21 09:35:28;;;;;;;;;;;;;;;23.39;46.25;94137.38;4976904;28;7263;-60
2022/10/21 09:38:06;;;;;;;;;;;;;;;23.39;46.59;94137.38;4985342;28;7217;-60
2022/10/21 09:40:34;;;;;;;;;;;;;;;23.38;46.60;94133.16;4989960;28;7036;-61
2022/10/21 09:43:05;;;;;;;;;;;;;;;23.38;46.61;94138.66;4998812;28;7252;-60
2022/10/21 09:46:03;;;;;;;;;;;;;;;23.39;47.20;94156.59;5046701;28;6939;-60
2022/10/21 09:48:50;;;;;;;;;;;;;;;23.39;46.73;94146.38;4953032;28;9354;-60
2022/10/21 09:51:39;;;;;;;;;;;;;;;23.39;46.82;94137.38;4968038;28;8958;-61
2022/10/21 09:54:15;;;;;;;;;;;;;;;23.38;46.73;94144.13;4980380;28;7220;-60
2022/10/21 09:57:12;;;;;;;;;;;;;;;23.38;46.80;94136.63;4952956;28;9259;-60
2022/10/21 09:59:57;;;;;;;;;;;;;;;23.37;47.12;94128.91;4940060;28;7272;-61
2022/10/21 10:02:37;;;;;;;;;;;;;;;23.36;46.75;94143.91;4955646;28;7277;-60
2022/10/21 10:05:42;;;;;;;;;;;;;;;23.36;46.57;94150.09;4956175;28;7458;-60
2022/10/21 10:08:30;;;;;;;;;;;;;;;23.37;46.96;94157.09;4975558;28;7247;-60
2022/10/21 10:11:13;;;;;;;;;;;;;;;23.37;47.00;94145.38;4984633;28;7250;-60
2022/10/21 10:13:53;;;;;;;;;;;;;;;23.35;46.64;94128.66;4992998;28;7397;-60
2022/10/21 10:16:31;;;;;;;;;;;;;;;23.35;46.47;94132.16;4986570;28;7210;-60
2022/10/21 10:19:13;;;;;;;;;;;;;;;23.35;46.74;94134.16;4986141;28;7246;-61
2022/10/21 10:21:39;;;;;;;;;;;;;;;23.35;46.86;94131.41;4977003;28;9559;-60
2022/10/21 10:24:15;;;;;;;;;;;;;;;23.35;45.95;94123.19;5006127;28;7005;-60
2022/10/21 10:26:45;;;;;;;;;;;;;;;23.35;47.11;94115.69;5056877;28;7213;-60
2022/10/21 10:29:14;;;;;;;;;;;;;;;23.37;46.93;94134.41;5074332;28;6971;-60
2022/10/21 10:31:58;;;;;;;;;;;;;;;23.36;46.96;94130.19;5056835;28;6919;-60
2022/10/21 10:34:47;;;;;;;;;;;;;;;23.35;46.85;94112.97;5067111;28;9046;-60
2022/10/21 10:37:35;;;;;;;;;;;;;;;23.37;46.53;94112.44;5056566;28;8767;-60
2022/10/21 10:40:38;;;;;;;;;;;;;;;23.36;47.00;94099.97;5054272;28;7383;-60
2022/10/21 10:43:25;;;;;;;;;;;;;;;23.34;46.85;94105.97;5069567;28;6997;-60
2022/10/21 10:45:58;;;;;;;;;;;;;;;23.35;46.88;94109.47;5062307;28;8987;-60
2022/10/21 10:49:15;;;;;;;;;;;;;;;23.36;47.00;94111.69;5046637;28;6985;-60
2022/10/21 10:52:03;;;;;;;;;;;;;;;23.39;46.80;94118.19;5008799;28;7490;-61
2022/10/21 10:54:43;;;;;;;;;;;;;;;23.37;47.09;94107.72;4983250;28;9707;-60
2022/10/21 10:57:17;;;;;;;;;;;;;;;23.37;46.92;94101.47;4986010;28;7329;-60
2022/10/21 11:00:04;;;;;;;;;;;;;;;23.38;46.84;94100.22;4987252;28;9696;-60
2022/10/21 11:03:09;;;;;;;;;;;;;;;23.38;46.52;94108.47;4985896;28;8661;-60
2022/10/21 11:06:07;;;;;;;;;;;;;;;23.38;46.66;94108.47;4945765;28;7220;-60
2022/10/21 11:09:00;;;;;;;;;;;;;;;23.40;46.89;94117.69;4953365;28;7251;-60
2022/10/21 11:11:36;;;;;;;;;;;;;;;23.39;46.91;94123.66;4952066;28;7168;-59
2022/10/21 11:14:01;;;;;;;;;;;;;;;23.40;46.41;94128.66;4929512;28;8480;-60
2022/10/21 11:16:46;;;;;;;;;;;;;;;23.42;46.57;94125.41;4953068;28;7311;-60
2022/10/21 11:19:33;;;;;;;;;;;;;;;23.41;46.76;94123.91;4936808;28;7881;-60
2022/10/21 11:22:19;;;;;;;;;;;;;;;23.43;46.41;94126.91;4952843;28;7117;-60
2022/10/21 11:25:19;;;;;;;;;;;;;;;23.43;46.81;94118.66;4949854;28;7360;-60
2022/10/21 11:28:30;;;;;;;;;;;;;;;23.45;46.67;94116.91;4980698;28;7278;-60
2022/10/21 11:31:33;;;;;;;;;;;;;;;23.46;46.41;94117.66;4970412;28;8099;-60
2022/10/21 11:34:36;;;;;;;;;;;;;;;23.44;46.41;94120.91;4949628;28;7074;-59
2022/10/21 11:37:36;;;;;;;;;;;;;;;23.46;47.00;94109.44;4952415;28;6993;-60
2022/10/21 11:40:27;;;;;;;;;;;;;;;23.48;46.61;94106.94;4952665;28;7352;-59
2022/10/21 11:43:20;;;;;;;;;;;;;;;23.49;46.33;94102.94;4951926;28;7222;-60
2022/10/21 11:46:18;;;;;;;;;;;;;;;23.48;46.78;94104.19;4942011;28;7441;-60
2022/10/21 11:48:53;;;;;;;;;;;;;;;23.48;46.46;94109.69;4948940;28;6989;-60
2022/10/21 11:51:30;;;;;;;;;;;;;;;23.47;46.61;94105.44;4949994;28;7092;-60
2022/10/21 11:54:44;;;;;;;;;;;;;;;23.47;46.71;94106.19;4943885;28;7253;-60
2022/10/21 11:57:20;;;;;;;;;;;;;;;23.48;46.24;94115.16;4939044;28;7273;-60
2022/10/21 12:00:22;;;;;;;;;;;;;;;23.48;46.38;94118.66;4958211;28;7278;-60
2022/10/21 12:03:15;;;;;;;;;;;;;;;23.49;46.33;94111.19;4967695;28;9239;-60
2022/10/21 12:05:59;;;;;;;;;;;;;;;23.49;46.92;94105.69;4965990;28;9432;-60
2022/10/21 12:09:00;;;;;;;;;;;;;;;23.48;46.85;94090.47;5011493;28;7215;-60
2022/10/21 12:11:55;;;;;;;;;;;;;;;23.48;46.49;94085.72;5012404;28;8455;-60
2022/10/21 12:14:57;;;;;;;;;;;;;;;23.48;46.35;94091.22;5040188;28;7501;-60
2022/10/21 12:17:24;;;;;;;;;;;;;;;23.48;46.27;94084.97;4996615;28;8267;-60
2022/10/21 12:19:57;;;;;;;;;;;;;;;23.44;46.76;94079.75;5029737;28;7294;-60
2022/10/21 12:22:26;;;;;;;;;;;;;;;23.42;46.47;94074.03;5022422;28;7204;-60
2022/10/21 12:25:15;;;;;;;;;;;;;;;23.42;46.75;94071.28;5002547;28;7417;-60
2022/10/21 12:28:14;;;;;;;;;;;;;;;23.42;46.66;94059.53;4949938;28;7228;-60
2022/10/21 12:30:55;;;;;;;;;;;;;;;23.39;47.09;94049.56;4951653;29;7235;-60
2022/10/21 12:34:06;;;;;;;;;;;;;;;23.39;46.85;94060.53;4955502;28;7060;-60
2022/10/21 12:36:50;;;;;;;;;;;;;;;23.39;47.14;94066.03;4952637;28;9424;-60
2022/10/21 12:40:07;;;;;;;;;;;;;;;23.39;47.13;94064.03;4944302;29;7130;-60
2022/10/21 12:43:14;;;;;;;;;;;;;;;23.39;47.19;94068.78;4945893;28;7185;-60
2022/10/21 12:46:09;;;;;;;;;;;;;;;23.40;46.76;94053.81;4936091;29;7272;-60
2022/10/21 12:49:22;;;;;;;;;;;;;;;23.40;47.06;94054.56;4951827;29;9027;-60
2022/10/21 12:52:02;;;;;;;;;;;;;;;23.41;47.39;94060.78;4932299;29;7253;-59
2022/10/21 12:54:50;;;;;;;;;;;;;;;23.42;47.06;94065.03;4959982;28;7237;-60
2022/10/21 12:57:40;;;;;;;;;;;;;;;23.43;46.71;94067.28;4931508;29;9030;-60
2022/10/21 13:00:26;;;;;;;;;;;;;;;23.45;46.90;94058.53;4951648;29;9800;-60
2022/10/21 13:03:06;;;;;;;;;;;;;;;23.46;46.84;94057.28;4935459;29;7065;-60
2022/10/21 13:05:35;;;;;;;;;;;;;;;23.46;46.68;94044.31;4919592;29;7136;-59
2022/10/21 13:08:23;;;;;;;;;;;;;;;23.48;46.50;94049.28;4968636;28;7300;-60
2022/10/21 13:11:07;;;;;;;;;;;;;;;23.48;46.85;94043.81;4991644;28;7371;-60
2022/10/21 13:13:32;;;;;;;;;;;;;;;23.48;46.90;94035.56;5000147;28;7004;-59
2022/10/21 13:16:18;;;;;;;;;;;;;;;23.49;46.36;94040.53;4988324;28;9716;-60
2022/10/21 13:19:00;;;;;;;;;;;;;;;23.46;46.83;94058.03;5004538;28;7282;-59
2022/10/21 13:21:51;;;;;;;;;;;;;;;23.45;46.37;94051.03;4987555;28;9890;-60
2022/10/21 13:24:32;;;;;;;;;;;;;;;23.44;46.34;94052.31;4999265;28;7044;-60
2022/10/21 13:27:26;;;;;;;;;;;;;;;23.43;46.73;94050.81;5021458;28;10414;-60
2022/10/21 13:29:57;;;;;;;;;;;;;;;23.44;47.10;94041.31;5034128;28;9384;-60
2022/10/21 13:32:45;;;;;;;;;;;;;;;23.45;47.19;94047.53;5074947;28;8189;-60
2022/10/21 13:35:18;;;;;;;;;;;;;;;23.49;46.77;94053.53;5061079;28;6928;-60
2022/10/21 13:38:24;;;;;;;;;;;;;;;23.50;46.66;94055.78;5063923;28;7084;-60
2022/10/21 13:40:57;;;;;;;;;;;;;;;23.51;46.92;94062.00;5062886;28;7457;-60
2022/10/21 13:43:44;;;;;;;;;;;;;;;23.50;46.40;94055.00;5055961;28;8948;-60
2022/10/21 13:46:18;;;;;;;;;;;;;;;23.49;46.59;94048.06;5073781;28;7424;-60
2022/10/21 13:48:59;;;;;;;;;;;;;;;23.49;46.64;94046.03;5056670;28;7505;-60
2022/10/21 13:51:56;;;;;;;;;;;;;;;23.51;46.68;94051.03;5056810;28;6996;-60
2022/10/21 13:54:22;;;;;;;;;;;;;;;23.51;46.90;94059.28;4982221;28;7927;-60
2022/10/21 13:56:48;;;;;;;;;;;;;;;23.50;46.65;94055.78;4991960;28;7294;-60
2022/10/21 13:59:28;;;;;;;;;;;;;;;23.49;47.03;94068.00;4999975;28;8446;-60
2022/10/21 14:01:56;;;;;;;;;;;;;;;23.49;46.74;94073.47;4992913;28;6993;-59
2022/10/21 14:04:26;;;;;;;;;;;;;;;23.48;46.65;94074.00;4978348;28;6965;-60